Time;durP1;ratioP1;P1;durP2;ratioP2;P2;SDS_P1;SDS_P2;PMS_P1;PMS_P2;Temp;Humidity;BMP_temperature;BMP_pressure;BME280_temperature;BME280_humidity;BME280_pressure;Samples;Min_cycle;Max_cycle;Signal;HPM_P1;HPM_P2
2023/08/21 00:01:13;;;;;;;6.65;5.38;;;20.60;99.90;;;;;;5060572;28;20055;-85
2023/08/21 00:03:39;;;;;;;10.23;5.57;;;20.40;99.90;;;;;;5068646;28;20090;-85
2023/08/21 00:06:05;;;;;;;10.15;5.70;;;20.30;99.90;;;;;;5050219;28;20459;-85
2023/08/21 00:08:30;;;;;;;9.90;6.20;;;20.30;99.90;;;;;;5056892;28;20082;-84
2023/08/21 00:10:56;;;;;;;11.05;5.97;;;20.20;99.90;;;;;;5067350;28;20027;-85
2023/08/21 00:13:21;;;;;;;10.18;5.25;;;20.10;99.90;;;;;;5061151;28;20023;-85
2023/08/21 00:15:47;;;;;;;10.35;6.05;;;20.10;99.90;;;;;;5082140;28;20035;-85
2023/08/21 00:18:13;;;;;;;9.35;5.82;;;20.00;99.90;;;;;;5076433;28;20028;-85
2023/08/21 00:20:41;;;;;;;14.25;6.10;;;20.00;99.90;;;;;;5075502;28;20567;-85
2023/08/21 00:23:08;;;;;;;8.38;6.25;;;20.00;99.90;;;;;;5064792;28;20059;-85
2023/08/21 00:25:34;;;;;;;13.40;5.88;;;19.90;99.90;;;;;;5061181;28;20395;-85
2023/08/21 00:28:00;;;;;;;13.30;6.72;;;19.80;99.90;;;;;;5083004;28;20021;-85
2023/08/21 00:30:26;;;;;;;11.45;6.38;;;19.80;99.90;;;;;;5077590;28;20057;-85
2023/08/21 00:32:52;;;;;;;12.68;6.65;;;19.80;99.90;;;;;;5082872;28;20519;-85
2023/08/21 00:35:19;;;;;;;12.30;7.20;;;19.80;99.90;;;;;;5058660;28;20052;-85
2023/08/21 00:37:45;;;;;;;11.05;6.45;;;19.80;99.90;;;;;;5071713;28;20024;-85
2023/08/21 00:40:11;;;;;;;11.45;6.78;;;19.80;99.90;;;;;;5064548;28;20029;-86
2023/08/21 00:42:36;;;;;;;10.40;6.97;;;19.80;99.90;;;;;;5077494;28;20049;-85
2023/08/21 00:45:03;;;;;;;11.85;7.25;;;19.80;99.90;;;;;;5083366;28;20064;-85
2023/08/21 00:47:29;;;;;;;10.80;6.22;;;19.70;99.90;;;;;;5061037;28;20166;-85
2023/08/21 00:49:55;;;;;;;10.68;7.03;;;19.70;99.90;;;;;;5061016;28;20449;-85
2023/08/21 00:52:21;;;;;;;13.45;6.70;;;19.70;99.90;;;;;;5080275;28;20016;-85
2023/08/21 00:54:46;;;;;;;13.57;6.95;;;19.60;99.90;;;;;;5079787;28;20032;-85
2023/08/21 00:57:14;;;;;;;11.05;7.85;;;19.60;99.90;;;;;;5077932;28;20033;-85
2023/08/21 00:59:40;;;;;;;16.27;8.25;;;19.60;99.90;;;;;;5059022;28;20029;-85
2023/08/21 01:02:05;;;;;;;13.40;8.10;;;19.60;99.90;;;;;;5078818;28;20029;-85
2023/08/21 01:04:31;;;;;;;13.48;8.65;;;19.60;99.90;;;;;;5059815;28;20116;-85
2023/08/21 01:06:57;;;;;;;12.68;8.23;;;19.50;99.90;;;;;;5080677;28;20476;-85
2023/08/21 01:09:35;;;;;;;9.43;7.53;;;19.60;99.90;;;;;;5077408;28;20024;-85
2023/08/21 01:12:18;;;;;;;11.60;7.88;;;19.60;99.90;;;;;;5082935;28;20024;-85
2023/08/21 01:15:05;;;;;;;16.23;8.90;;;19.60;99.90;;;;;;5061530;28;20033;-85
2023/08/21 01:17:35;;;;;;;13.23;9.02;;;19.60;99.90;;;;;;5070141;28;20119;-85
2023/08/21 01:20:02;;;;;;;15.15;10.88;;;19.60;99.90;;;;;;5081258;28;20039;-85
2023/08/21 01:22:34;;;;;;;14.52;10.50;;;19.60;99.90;;;;;;5059066;28;20375;-85
2023/08/21 01:25:00;;;;;;;15.90;10.95;;;19.70;99.90;;;;;;5066294;28;20048;-85
2023/08/21 01:27:26;;;;;;;15.82;10.40;;;19.70;99.90;;;;;;5061351;28;20130;-85
2023/08/21 01:29:51;;;;;;;13.45;11.27;;;19.70;99.90;;;;;;5075836;28;20103;-85
2023/08/21 01:32:24;;;;;;;18.90;10.98;;;19.70;99.90;;;;;;5063928;28;20496;-84
2023/08/21 01:34:53;;;;;;;15.35;10.23;;;19.60;99.90;;;;;;5078440;28;20102;-84
2023/08/21 01:37:19;;;;;;;17.98;10.82;;;19.60;99.90;;;;;;5064358;28;20031;-85
2023/08/21 01:39:48;;;;;;;18.40;11.23;;;19.60;99.90;;;;;;5081202;28;20031;-85
2023/08/21 01:42:14;;;;;;;13.50;11.15;;;19.60;99.90;;;;;;5075085;28;20036;-84
2023/08/21 01:44:40;;;;;;;17.48;11.60;;;19.60;99.90;;;;;;5064970;28;20222;-84
2023/08/21 01:47:06;;;;;;;16.33;12.18;;;19.50;99.90;;;;;;5059601;28;20021;-85
2023/08/21 01:49:32;;;;;;;18.98;12.90;;;19.50;99.90;;;;;;5078409;28;20134;-85
2023/08/21 01:51:58;;;;;;;18.92;13.27;;;19.50;99.90;;;;;;5059596;28;20044;-85
2023/08/21 01:54:24;;;;;;;19.48;13.20;;;19.50;99.90;;;;;;5081457;28;20016;-85
2023/08/21 01:56:50;;;;;;;18.77;13.10;;;19.60;99.90;;;;;;5077615;28;20040;-85
2023/08/21 01:59:17;;;;;;;16.05;11.93;;;19.60;99.90;;;;;;5067557;28;20436;-85
2023/08/21 02:01:43;;;;;;;21.35;12.50;;;19.60;99.90;;;;;;5081406;28;20040;-85
2023/08/21 02:04:08;;;;;;;19.42;13.18;;;19.60;99.90;;;;;;5078999;28;20055;-85
2023/08/21 02:06:34;;;;;;;19.92;15.48;;;19.60;99.90;;;;;;5061733;28;20116;-85
2023/08/21 02:09:00;;;;;;;20.38;14.10;;;19.60;99.90;;;;;;5081719;28;20056;-85
2023/08/21 02:11:25;;;;;;;23.13;15.48;;;19.60;99.90;;;;;;5074542;28;20066;-85
2023/08/21 02:13:52;;;;;;;22.20;15.27;;;19.60;99.90;;;;;;5069726;28;20074;-86
2023/08/21 02:16:18;;;;;;;24.83;16.05;;;19.60;99.90;;;;;;5062397;28;20472;-85
2023/08/21 02:18:43;;;;;;;23.55;14.90;;;19.60;99.90;;;;;;5081326;28;20043;-85
2023/08/21 02:21:27;;;;;;;23.73;16.13;;;19.60;99.90;;;;;;5062017;28;20021;-85
2023/08/21 02:23:53;;;;;;;22.17;15.90;;;19.60;99.90;;;;;;5071863;28;20063;-85
2023/08/21 02:26:19;;;;;;;22.10;14.90;;;19.50;99.90;;;;;;5079956;28;20463;-85
2023/08/21 02:28:46;;;;;;;27.95;15.63;;;19.40;99.90;;;;;;5067866;28;20143;-85
2023/08/21 02:31:52;;;;;;;22.10;16.70;;;19.40;99.90;;;;;;5065736;28;20463;-85
2023/08/21 02:34:40;;;;;;;24.40;17.42;;;19.40;99.90;;;;;;5064319;28;20055;-85
2023/08/21 02:37:30;;;;;;;20.63;16.63;;;19.40;99.90;;;;;;5064281;28;20032;-85
2023/08/21 02:39:56;;;;;;;24.33;17.67;;;19.40;99.90;;;;;;5070939;28;20117;-85
2023/08/21 02:42:21;;;;;;;23.52;18.05;;;19.40;99.90;;;;;;5079582;28;20024;-85
2023/08/21 02:44:47;;;;;;;23.58;18.17;;;19.40;99.90;;;;;;5082890;28;20032;-86
2023/08/21 02:47:13;;;;;;;27.73;19.48;;;19.40;99.90;;;;;;5062094;28;20696;-85
2023/08/21 02:49:38;;;;;;;25.30;18.90;;;19.40;99.90;;;;;;5068403;28;20135;-85
2023/08/21 02:52:05;;;;;;;28.73;19.67;;;19.40;99.90;;;;;;5082026;28;20031;-85
2023/08/21 02:54:31;;;;;;;24.58;18.77;;;19.40;99.90;;;;;;5062386;28;20021;-85
2023/08/21 02:57:21;;;;;;;30.40;20.08;;;19.40;99.90;;;;;;5083233;28;20029;-85
2023/08/21 02:59:47;;;;;;;28.70;19.15;;;19.40;99.90;;;;;;5077948;28;20055;-85
2023/08/21 03:02:13;;;;;;;24.88;18.25;;;19.40;99.90;;;;;;5081857;28;20024;-86
2023/08/21 03:04:38;;;;;;;23.45;17.55;;;19.40;99.90;;;;;;5075212;28;20029;-86
2023/08/21 03:07:05;;;;;;;22.10;17.30;;;19.40;99.90;;;;;;5085501;28;20020;-85
2023/08/21 03:09:37;;;;;;;20.50;17.13;;;19.30;99.90;;;;;;5080215;28;20111;-85
2023/08/21 03:12:04;;;;;;;22.58;17.52;;;19.20;99.90;;;;;;5070550;28;20050;-85
2023/08/21 03:14:29;;;;;;;24.92;18.88;;;19.10;99.90;;;;;;5080542;28;20032;-85
2023/08/21 03:16:55;;;;;;;28.90;20.45;;;19.10;99.90;;;;;;5062463;28;20026;-85
2023/08/21 03:19:21;;;;;;;27.38;21.08;;;19.10;99.90;;;;;;5075843;28;20024;-85
2023/08/21 03:21:47;;;;;;;29.50;21.30;;;19.00;99.90;;;;;;5065406;28;20117;-85
2023/08/21 03:24:12;;;;;;;25.65;19.48;;;19.10;99.90;;;;;;5077554;28;20392;-85
2023/08/21 03:26:38;;;;;;;25.50;20.35;;;19.10;99.90;;;;;;5078450;28;20024;-85
2023/08/21 03:29:04;;;;;;;25.48;19.33;;;19.10;99.90;;;;;;5061188;28;20017;-85
2023/08/21 03:32:02;;;;;;;26.17;19.85;;;19.10;99.90;;;;;;5070481;28;20051;-85
2023/08/21 03:34:27;;;;;;;29.45;20.40;;;19.00;99.90;;;;;;5079391;28;20507;-85
2023/08/21 03:36:57;;;;;;;25.13;19.95;;;19.00;99.90;;;;;;5065339;28;20027;-85
2023/08/21 03:39:25;;;;;;;24.60;20.00;;;19.00;99.90;;;;;;5062800;28;20102;-86
2023/08/21 03:41:50;;;;;;;24.58;19.60;;;18.90;99.90;;;;;;5077713;28;20025;-85
2023/08/21 03:44:16;;;;;;;28.73;18.98;;;18.90;99.90;;;;;;5064893;28;20025;-85
2023/08/21 03:46:41;;;;;;;24.67;19.90;;;18.90;99.90;;;;;;5077231;28;20029;-86
2023/08/21 03:49:08;;;;;;;28.75;20.15;;;18.90;99.90;;;;;;5064427;28;20024;-85
2023/08/21 03:51:34;;;;;;;28.52;20.83;;;18.80;99.90;;;;;;5079103;28;20036;-86
2023/08/21 03:54:00;;;;;;;33.58;21.88;;;18.80;99.90;;;;;;5059846;28;20025;-86
2023/08/21 03:56:25;;;;;;;31.50;23.27;;;18.80;99.90;;;;;;5065655;28;20020;-85
2023/08/21 03:58:53;;;;;;;32.83;22.40;;;18.80;99.90;;;;;;5061662;28;20031;-86
2023/08/21 04:01:19;;;;;;;36.42;24.30;;;18.80;99.90;;;;;;5066983;28;20016;-85
2023/08/21 04:03:45;;;;;;;32.80;24.33;;;18.80;99.90;;;;;;5061057;28;20494;-85
2023/08/21 04:06:11;;;;;;;29.35;22.65;;;18.70;99.90;;;;;;5060670;28;20078;-85
2023/08/21 04:08:38;;;;;;;28.20;22.15;;;18.70;99.90;;;;;;5066713;28;20028;-85
2023/08/21 04:11:06;;;;;;;29.83;22.38;;;18.70;99.90;;;;;;5080803;28;20451;-85
2023/08/21 04:13:32;;;;;;;28.42;22.40;;;18.70;99.90;;;;;;5062064;28;20059;-85
2023/08/21 04:15:58;;;;;;;34.05;24.40;;;18.60;99.90;;;;;;5075897;28;20060;-85
2023/08/21 04:18:24;;;;;;;35.58;25.42;;;18.60;99.90;;;;;;5064229;28;20020;-86
2023/08/21 04:20:50;;;;;;;31.33;25.75;;;18.60;99.90;;;;;;5061130;28;20597;-85
2023/08/21 04:23:16;;;;;;;37.03;24.38;;;18.70;99.90;;;;;;5067607;28;20016;-85
2023/08/21 04:25:42;;;;;;;31.83;24.55;;;18.70;99.90;;;;;;5074209;28;20555;-87
2023/08/21 04:28:08;;;;;;;36.03;24.90;;;18.70;99.90;;;;;;5074872;28;20035;-87
2023/08/21 04:30:34;;;;;;;34.88;25.00;;;18.70;99.90;;;;;;5062524;28;20024;-87
2023/08/21 04:33:00;;;;;;;35.15;25.83;;;18.70;99.90;;;;;;5076307;28;20111;-87
2023/08/21 04:35:26;;;;;;;33.83;25.70;;;18.70;99.90;;;;;;5055593;28;20070;-87
2023/08/21 04:37:52;;;;;;;33.60;25.00;;;18.70;99.90;;;;;;5058996;28;20019;-87
2023/08/21 04:40:22;;;;;;;36.60;27.25;;;18.70;99.90;;;;;;5059999;28;20021;-87
2023/08/21 04:42:47;;;;;;;34.50;26.17;;;18.80;99.90;;;;;;5073067;28;20031;-86
2023/08/21 04:45:14;;;;;;;34.15;23.80;;;18.80;99.90;;;;;;5078221;28;21038;-87
2023/08/21 04:47:40;;;;;;;30.80;23.55;;;18.80;99.90;;;;;;5069233;28;20024;-87
2023/08/21 04:50:06;;;;;;;33.25;24.95;;;18.80;99.90;;;;;;5055798;28;20024;-87
2023/08/21 04:52:32;;;;;;;37.72;26.70;;;18.80;99.90;;;;;;5062664;28;20040;-87
2023/08/21 04:54:59;;;;;;;38.03;26.92;;;18.80;99.90;;;;;;5056529;28;20009;-87
2023/08/21 04:57:26;;;;;;;40.13;28.42;;;18.90;99.90;;;;;;5074463;28;20115;-87
2023/08/21 04:59:52;;;;;;;38.47;29.17;;;18.90;99.90;;;;;;5053816;28;20060;-87
2023/08/21 05:02:19;;;;;;;39.97;27.75;;;19.00;99.90;;;;;;5048974;28;20555;-87
2023/08/21 05:04:45;;;;;;;38.92;26.85;;;19.10;99.90;;;;;;5059394;28;20072;-87
2023/08/21 05:07:11;;;;;;;34.85;26.80;;;19.20;99.90;;;;;;5068909;28;20063;-87
2023/08/21 05:09:36;;;;;;;33.80;25.92;;;19.30;99.90;;;;;;5080251;28;20023;-87
2023/08/21 05:12:03;;;;;;;31.63;24.17;;;19.40;99.90;;;;;;5061589;28;20084;-86
2023/08/21 05:14:29;;;;;;;33.35;25.33;;;19.50;99.90;;;;;;5058522;28;20028;-87
2023/08/21 05:16:55;;;;;;;34.95;24.45;;;19.50;99.90;;;;;;5063578;28;20085;-87
2023/08/21 05:19:21;;;;;;;34.47;24.05;;;19.60;99.90;;;;;;5073369;28;20100;-87
2023/08/21 05:21:46;;;;;;;29.13;23.88;;;19.60;99.90;;;;;;5069246;28;20029;-87
2023/08/21 05:24:12;;;;;;;33.05;23.38;;;19.70;99.90;;;;;;5060012;28;20028;-87
2023/08/21 05:26:43;;;;;;;27.80;21.48;;;19.80;99.90;;;;;;5063054;28;20024;-87
2023/08/21 05:29:34;;;;;;;30.33;21.83;;;19.90;99.90;;;;;;5064575;28;20418;-87
2023/08/21 05:32:01;;;;;;;32.55;21.30;;;19.90;99.90;;;;;;5068303;28;20060;-87
2023/08/21 05:34:28;;;;;;;25.85;20.60;;;20.00;99.90;;;;;;5068461;28;20099;-87
2023/08/21 05:36:54;;;;;;;25.70;19.77;;;20.10;99.90;;;;;;5072244;28;20468;-87
2023/08/21 05:39:20;;;;;;;33.80;22.33;;;20.20;99.90;;;;;;5074565;28;20497;-87
2023/08/21 05:41:48;;;;;;;24.60;20.77;;;20.30;99.90;;;;;;5060416;28;20100;-87
2023/08/21 05:44:14;;;;;;;26.23;18.55;;;20.40;99.90;;;;;;5072200;28;20111;-87
2023/08/21 05:46:40;;;;;;;31.05;20.45;;;20.50;99.90;;;;;;5057693;28;20205;-88
2023/08/21 05:49:06;;;;;;;25.23;18.13;;;20.60;99.90;;;;;;5052752;28;20036;-87
2023/08/21 05:51:32;;;;;;;28.52;18.38;;;20.70;99.90;;;;;;5078207;28;20416;-87
2023/08/21 05:53:58;;;;;;;27.52;18.85;;;20.80;99.90;;;;;;5063566;28;20415;-87
2023/08/21 06:00:12;;;;;;;26.55;18.27;;;21.00;99.90;;;;;;5071684;28;20086;-87
2023/08/21 06:02:44;;;;;;;25.33;17.33;;;21.20;99.90;;;;;;5076013;28;20032;-87
2023/08/21 06:05:17;;;;;;;24.90;17.65;;;21.40;99.90;;;;;;5062870;28;20033;-87
2023/08/21 06:07:44;;;;;;;23.05;17.63;;;21.50;99.90;;;;;;5076966;28;20033;-87
2023/08/21 06:10:14;;;;;;;21.80;16.13;;;21.60;99.90;;;;;;5055244;28;20083;-87
2023/08/21 06:12:41;;;;;;;20.58;16.50;;;21.80;99.90;;;;;;5064553;28;20072;-87
2023/08/21 06:15:08;;;;;;;20.35;17.25;;;21.90;99.90;;;;;;5062547;28;20124;-87
2023/08/21 06:17:34;;;;;;;21.67;16.90;;;22.10;99.90;;;;;;5067971;28;20455;-87
2023/08/21 06:20:00;;;;;;;21.70;16.45;;;22.20;99.90;;;;;;5077465;28;20020;-87
2023/08/21 06:22:26;;;;;;;19.20;15.07;;;22.30;99.90;;;;;;5078550;28;20425;-87
2023/08/21 06:24:52;;;;;;;20.00;15.48;;;22.50;99.90;;;;;;5061578;28;20551;-87
2023/08/21 06:27:17;;;;;;;17.88;14.60;;;22.60;99.90;;;;;;5075363;28;20111;-87
2023/08/21 06:29:43;;;;;;;18.33;15.15;;;22.70;99.90;;;;;;5079988;28;20441;-87
2023/08/21 06:32:10;;;;;;;20.75;14.75;;;22.80;99.90;;;;;;5062121;28;20017;-87
2023/08/21 06:34:37;;;;;;;20.40;15.10;;;23.00;99.90;;;;;;5074476;28;20021;-87
2023/08/21 06:37:03;;;;;;;19.90;14.27;;;23.10;99.90;;;;;;5087365;28;20030;-87
2023/08/21 06:39:29;;;;;;;19.90;14.25;;;23.30;99.90;;;;;;5048479;28;20389;-87
2023/08/21 06:41:54;;;;;;;21.95;15.48;;;23.40;99.90;;;;;;5059568;28;20456;-87
2023/08/21 06:44:20;;;;;;;17.30;13.88;;;23.50;99.90;;;;;;5060237;28;20029;-87
2023/08/21 06:46:46;;;;;;;18.90;14.00;;;23.60;99.90;;;;;;5061622;28;20074;-87
2023/08/21 06:49:13;;;;;;;18.00;14.02;;;23.70;99.90;;;;;;5081202;28;20024;-87
2023/08/21 06:51:38;;;;;;;16.05;12.40;;;23.90;99.90;;;;;;5060195;28;20036;-87
2023/08/21 06:54:04;;;;;;;17.55;12.25;;;24.00;99.90;;;;;;5083318;28;20038;-87
2023/08/21 06:56:30;;;;;;;17.38;11.93;;;24.10;99.90;;;;;;5086369;28;20067;-87
2023/08/21 06:58:55;;;;;;;16.65;13.05;;;24.20;99.90;;;;;;5072959;28;20044;-87
2023/08/21 07:01:22;;;;;;;19.30;13.70;;;24.40;99.90;;;;;;5078375;28;20028;-87
2023/08/21 07:03:47;;;;;;;16.98;12.23;;;24.40;99.90;;;;;;5058879;28;20422;-87
2023/08/21 07:06:41;;;;;;;22.77;13.38;;;24.50;99.90;;;;;;5063615;28;20039;-87
2023/08/21 07:09:09;;;;;;;18.42;10.30;;;24.60;99.90;;;;;;5071886;28;20028;-87
2023/08/21 07:11:35;;;;;;;14.23;11.15;;;24.70;99.90;;;;;;5076013;28;20103;-87
2023/08/21 07:14:01;;;;;;;17.50;10.95;;;24.90;99.90;;;;;;5080561;28;20059;-87
2023/08/21 07:16:27;;;;;;;12.77;9.00;;;25.00;99.90;;;;;;5063901;28;20041;-87
2023/08/21 07:18:53;;;;;;;13.77;9.27;;;25.10;99.90;;;;;;5062379;28;20056;-87
2023/08/21 07:21:19;;;;;;;13.48;9.48;;;25.20;99.90;;;;;;5057086;28;20024;-87
2023/08/21 07:23:45;;;;;;;15.85;9.48;;;25.30;99.90;;;;;;5059877;28;20021;-87
2023/08/21 07:26:10;;;;;;;12.68;9.90;;;25.30;99.90;;;;;;5056346;28;20118;-86
2023/08/21 07:28:37;;;;;;;15.38;9.25;;;25.40;99.90;;;;;;5072432;28;20028;-87
2023/08/21 07:31:03;;;;;;;13.82;9.73;;;25.40;99.90;;;;;;5053966;28;20047;-87
2023/08/21 07:33:29;;;;;;;11.23;8.23;;;25.40;99.90;;;;;;5071542;28;20038;-88
2023/08/21 07:36:05;;;;;;;14.15;8.52;;;25.40;99.90;;;;;;5074244;28;20032;-88
2023/08/21 07:38:53;;;;;;;13.13;7.70;;;25.50;99.90;;;;;;5075014;28;20028;-87
2023/08/21 07:41:19;;;;;;;13.18;8.07;;;25.60;99.90;;;;;;5078992;28;20048;-87
2023/08/21 07:43:45;;;;;;;15.57;9.00;;;25.70;99.90;;;;;;5077372;28;20024;-88
2023/08/21 07:46:15;;;;;;;21.08;9.05;;;25.70;99.90;;;;;;5079575;28;20030;-87
2023/08/21 07:48:43;;;;;;;16.63;8.33;;;25.80;99.90;;;;;;5090798;28;20498;-88
2023/08/21 07:51:09;;;;;;;14.20;8.55;;;25.80;99.90;;;;;;5075609;28;20544;-87
2023/08/21 07:53:34;;;;;;;15.02;8.88;;;25.80;99.90;;;;;;5074307;28;20029;-87
2023/08/21 07:56:01;;;;;;;10.93;8.43;;;25.80;99.90;;;;;;5077341;28;20055;-88
2023/08/21 07:58:27;;;;;;;13.05;8.88;;;25.80;99.90;;;;;;5054805;28;20429;-88
2023/08/21 08:00:52;;;;;;;12.82;7.97;;;25.80;99.90;;;;;;5075121;28;20028;-87
2023/08/21 08:03:18;;;;;;;9.15;6.13;;;25.80;99.90;;;;;;5079093;28;20016;-87
2023/08/21 08:05:44;;;;;;;10.77;6.13;;;25.80;99.90;;;;;;5061327;28;20023;-87
2023/08/21 08:08:10;;;;;;;11.15;6.65;;;26.00;99.90;;;;;;5079367;28;20020;-87
2023/08/21 08:10:53;;;;;;;13.07;7.28;;;26.10;99.90;;;;;;5061172;28;20115;-87
2023/08/21 08:13:19;;;;;;;10.88;6.10;;;26.10;99.90;;;;;;5071319;28;20016;-87
2023/08/21 08:15:44;;;;;;;9.85;6.05;;;26.20;99.90;;;;;;5082442;28;20040;-88
2023/08/21 08:18:13;;;;;;;10.82;6.75;;;26.20;99.90;;;;;;5060452;28;20020;-87
2023/08/21 08:20:40;;;;;;;8.95;6.38;;;26.30;99.90;;;;;;5066639;28;20084;-87
2023/08/21 08:23:49;;;;;;;9.65;6.53;;;26.30;99.90;;;;;;5079242;28;20041;-87
2023/08/21 08:26:14;;;;;;;8.40;6.03;;;26.40;99.90;;;;;;5066086;28;20038;-88
2023/08/21 08:28:40;;;;;;;8.75;6.03;;;26.50;99.90;;;;;;5066557;28;20028;-87
2023/08/21 08:31:38;;;;;;;8.95;6.18;;;26.50;99.90;;;;;;5062590;28;20127;-87
2023/08/21 08:34:04;;;;;;;13.32;7.18;;;26.40;99.90;;;;;;5075865;28;20088;-87
2023/08/21 08:36:30;;;;;;;10.35;7.47;;;26.40;99.90;;;;;;5063722;28;20044;-87
2023/08/21 08:38:56;;;;;;;10.75;6.72;;;26.50;99.90;;;;;;5080372;28;20055;-88
2023/08/21 08:41:44;;;;;;;8.77;6.03;;;26.50;99.90;;;;;;5072759;28;20028;-86
2023/08/21 08:44:12;;;;;;;11.10;7.82;;;26.50;99.90;;;;;;5079415;28;20019;-87
2023/08/21 08:46:38;;;;;;;13.18;7.10;;;26.60;99.90;;;;;;5060495;28;20105;-87
2023/08/21 08:49:04;;;;;;;10.70;6.85;;;26.60;99.90;;;;;;5064840;28;20031;-87
2023/08/21 08:51:33;;;;;;;10.32;7.32;;;26.70;99.90;;;;;;5078209;28;20070;-87
2023/08/21 08:54:00;;;;;;;13.63;6.70;;;26.70;99.90;;;;;;5057562;28;20467;-88
2023/08/21 08:56:26;;;;;;;12.48;6.82;;;26.70;99.90;;;;;;5062755;28;20034;-88
2023/08/21 08:58:51;;;;;;;12.15;7.35;;;26.90;99.90;;;;;;5064296;28;20471;-88
2023/08/21 09:01:17;;;;;;;16.27;7.07;;;27.10;99.90;;;;;;5062785;28;20028;-87
2023/08/21 09:03:43;;;;;;;11.07;6.93;;;27.90;99.90;;;;;;5063635;28;20029;-87
2023/08/21 09:06:08;;;;;;;8.93;5.57;;;29.30;99.90;;;;;;5062031;28;20024;-88
2023/08/21 09:08:34;;;;;;;9.95;5.50;;;31.00;99.90;;;;;;5057381;28;20024;-87
2023/08/21 09:11:03;;;;;;;6.85;4.22;;;31.50;99.90;;;;;;5064363;28;20035;-88
2023/08/21 09:13:31;;;;;;;8.35;5.97;;;31.80;99.90;;;;;;5059228;28;20025;-88
2023/08/21 09:15:58;;;;;;;8.80;5.80;;;32.50;99.90;;;;;;5065611;28;20028;-87
2023/08/21 09:18:24;;;;;;;7.63;5.60;;;33.20;99.90;;;;;;5058843;28;20468;-90
2023/08/21 09:20:50;;;;;;;9.98;5.35;;;33.60;99.90;;;;;;5059590;28;20112;-88
2023/08/21 09:23:47;;;;;;;8.43;4.82;;;34.00;99.90;;;;;;5081754;28;20135;-88
2023/08/21 09:26:23;;;;;;;6.25;4.00;;;35.20;99.90;;;;;;5061782;28;20519;-88
2023/08/21 09:28:50;;;;;;;7.78;4.93;;;36.40;99.10;;;;;;5064232;28;20119;-88
2023/08/21 09:31:36;;;;;;;9.00;4.45;;;37.10;94.50;;;;;;5060880;28;20021;-88
2023/08/21 09:34:07;;;;;;;6.03;4.30;;;37.20;93.60;;;;;;5062311;28;20036;-88
2023/08/21 09:36:33;;;;;;;;;;;36.70;92.30;;;;;;5059855;28;20182;-88
2023/08/21 09:38:59;;;;;;;10.25;4.20;;;36.80;92.00;;;;;;5068214;28;19908;-88
2023/08/21 09:41:25;;;;;;;9.05;4.20;;;36.80;91.90;;;;;;5075463;28;20376;-88
2023/08/21 09:43:51;;;;;;;8.98;4.47;;;36.80;90.10;;;;;;5058508;28;20499;-87
2023/08/21 09:46:24;;;;;;;10.65;4.03;;;36.40;89.70;;;;;;5059536;28;20032;-88
2023/08/21 09:48:51;;;;;;;7.57;4.07;;;36.40;88.40;;;;;;5052910;28;20028;-88
2023/08/21 09:51:17;;;;;;;13.70;4.28;;;36.40;87.50;;;;;;5074834;28;20031;-87
2023/08/21 09:53:43;;;;;;;5.75;3.92;;;36.40;87.90;;;;;;5058432;28;20127;-88
2023/08/21 09:56:10;;;;;;;7.43;4.43;;;36.10;90.20;;;;;;5059008;28;20032;-88
2023/08/21 09:58:38;;;;;;;8.88;4.80;;;35.50;91.10;;;;;;5058662;28;20035;-88
2023/08/21 10:01:14;;;;;;;11.75;4.95;;;35.10;91.80;;;;;;5075491;28;20028;-88
2023/08/21 10:03:47;;;;;;;15.30;5.72;;;34.60;93.20;;;;;;5076959;28;20032;-88
2023/08/21 10:06:16;;;;;;;7.72;5.53;;;33.30;93.90;;;;;;5075585;28;20036;-88
2023/08/21 10:08:45;;;;;;;7.60;5.68;;;32.50;95.10;;;;;;5059071;28;20020;-88
2023/08/21 10:11:20;;;;;;;10.65;5.15;;;32.30;96.00;;;;;;5070059;28;20060;-88
2023/08/21 10:13:46;;;;;;;8.27;5.47;;;32.20;96.70;;;;;;5070899;28;20032;-88
2023/08/21 10:16:12;;;;;;;11.02;4.97;;;32.50;96.40;;;;;;5066993;28;20032;-88
2023/08/21 10:18:43;;;;;;;12.27;6.35;;;33.40;96.40;;;;;;5075507;28;20064;-88
2023/08/21 10:21:19;;;;;;;7.60;5.57;;;33.40;95.70;;;;;;5079869;28;20103;-88
2023/08/21 10:23:49;;;;;;;9.23;5.03;;;33.10;95.10;;;;;;5059311;28;20029;-88
2023/08/21 10:26:18;;;;;;;5.57;4.88;;;33.00;95.20;;;;;;5080770;28;20034;-88
2023/08/21 10:29:01;;;;;;;7.70;4.75;;;33.10;94.60;;;;;;5066376;28;20032;-88
2023/08/21 10:31:30;;;;;;;7.88;4.63;;;33.60;94.50;;;;;;5081070;28;20074;-87
2023/08/21 10:33:56;;;;;;;6.95;5.03;;;34.10;93.30;;;;;;5079037;28;20095;-88
2023/08/21 10:36:44;;;;;;;7.20;5.10;;;34.40;93.50;;;;;;5065036;28;20415;-88
2023/08/21 10:39:14;;;;;;;8.05;5.10;;;35.50;91.00;;;;;;5064220;28;20027;-88
2023/08/21 10:41:41;;;;;;;10.30;5.35;;;35.90;91.80;;;;;;5082757;28;20029;-88
2023/08/21 10:44:06;;;;;;;6.68;4.57;;;35.60;90.40;;;;;;5083325;28;20054;-88
2023/08/21 10:46:52;;;;;;;11.95;5.22;;;35.40;90.60;;;;;;5059286;28;20562;-89
2023/08/21 10:49:18;;;;;;;7.35;4.53;;;34.70;90.70;;;;;;5066357;28;20024;-87
2023/08/21 10:51:50;;;;;;;8.23;5.20;;;34.40;91.30;;;;;;5064131;28;20092;-88
2023/08/21 10:54:16;;;;;;;10.38;4.68;;;34.40;91.70;;;;;;5059761;28;20032;-89
2023/08/21 10:56:42;;;;;;;6.95;4.53;;;34.90;91.20;;;;;;5065944;28;20494;-88
2023/08/21 10:59:07;;;;;;;9.05;5.15;;;35.00;90.90;;;;;;5079020;28;20531;-87
2023/08/21 11:01:45;;;;;;;7.38;5.35;;;35.70;91.50;;;;;;5069107;28;20375;-87
2023/08/21 11:04:12;;;;;;;10.13;4.93;;;36.00;90.50;;;;;;5063559;28;20020;-87
2023/08/21 11:06:39;;;;;;;5.10;4.28;;;36.10;90.00;;;;;;5065138;28;20071;-87
2023/08/21 11:09:12;;;;;;;7.15;4.22;;;35.50;89.90;;;;;;5082299;28;20024;-87
2023/08/21 11:11:37;;;;;;;10.60;4.68;;;35.20;91.20;;;;;;5064024;28;20454;-87
2023/08/21 11:14:03;;;;;;;9.80;4.85;;;35.50;92.10;;;;;;5062189;28;20067;-87
2023/08/21 11:16:29;;;;;;;12.68;5.10;;;35.60;90.40;;;;;;5064775;28;20036;-90
2023/08/21 11:18:54;;;;;;;6.75;5.28;;;35.60;91.00;;;;;;5065585;28;20074;-84
2023/08/21 11:21:25;;;;;;;10.57;4.88;;;35.00;90.10;;;;;;5060298;28;20063;-84
2023/08/21 11:23:50;;;;;;;11.90;5.95;;;34.30;91.60;;;;;;5063162;28;20028;-88
2023/08/21 11:26:16;;;;;;;8.77;5.60;;;34.40;92.10;;;;;;5075947;28;20040;-88
2023/08/21 11:28:42;;;;;;;8.55;5.32;;;34.80;92.50;;;;;;5086958;28;20387;-87
2023/08/21 11:31:09;;;;;;;7.07;4.38;;;35.20;92.70;;;;;;5050413;28;20024;-88
2023/08/21 11:33:38;;;;;;;9.48;4.72;;;35.50;91.90;;;;;;5062194;28;20067;-88
2023/08/21 11:36:05;;;;;;;5.65;4.18;;;36.10;92.00;;;;;;5052151;28;20036;-87
2023/08/21 11:38:30;;;;;;;9.75;5.00;;;37.00;90.80;;;;;;5059718;28;20025;-88
2023/08/21 11:40:57;;;;;;;5.13;4.28;;;37.50;90.40;;;;;;5073737;28;20024;-88
2023/08/21 11:43:34;;;;;;;11.13;5.60;;;37.80;88.60;;;;;;5072797;28;20376;-88
2023/08/21 11:46:04;;;;;;;8.10;5.00;;;37.70;88.10;;;;;;5068639;28;20119;-88
2023/08/21 11:48:30;;;;;;;;;;;36.70;90.30;;;;;;5068595;28;20029;-88
2023/08/21 11:50:56;;;;;;;9.57;5.38;;;36.00;90.80;;;;;;5073215;28;19908;-88
2023/08/21 11:53:36;;;;;;;8.82;5.53;;;34.50;90.70;;;;;;5081611;28;20126;-88
2023/08/21 11:56:08;;;;;;;7.63;5.60;;;33.70;92.90;;;;;;5056794;28;20483;-88
2023/08/21 11:58:38;;;;;;;12.27;5.30;;;32.80;92.70;;;;;;5065272;28;20434;-88
2023/08/21 12:01:04;;;;;;;5.78;4.80;;;32.30;93.50;;;;;;5052690;28;20021;-87
2023/08/21 12:03:36;;;;;;;11.45;6.00;;;32.20;94.60;;;;;;5049617;28;20013;-87
2023/08/21 12:06:05;;;;;;;9.23;5.55;;;31.90;95.30;;;;;;5056783;28;20375;-87
2023/08/21 12:08:31;;;;;;;8.48;5.93;;;31.90;96.70;;;;;;5077583;28;20034;-87
2023/08/21 12:10:56;;;;;;;9.60;6.38;;;31.50;95.60;;;;;;5066058;28;20028;-87
2023/08/21 12:13:22;;;;;;;9.02;6.13;;;31.30;96.20;;;;;;5072516;28;20229;-87
2023/08/21 12:15:48;;;;;;;10.73;5.70;;;31.00;96.40;;;;;;5074239;28;20027;-88
2023/08/21 12:18:13;;;;;;;11.60;6.65;;;30.70;97.70;;;;;;5071774;28;20047;-87
2023/08/21 12:20:39;;;;;;;13.18;6.75;;;30.20;98.40;;;;;;5055423;28;20027;-87
2023/08/21 12:23:05;;;;;;;13.57;7.38;;;29.80;99.30;;;;;;5069884;28;20024;-87
2023/08/21 12:25:31;;;;;;;12.55;6.88;;;29.50;99.90;;;;;;5072018;28;20143;-87
2023/08/21 12:27:57;;;;;;;8.75;6.32;;;29.40;99.90;;;;;;5055112;28;20537;-87
2023/08/21 12:30:23;;;;;;;7.85;6.07;;;29.50;99.90;;;;;;5072191;28;20032;-87
2023/08/21 12:32:49;;;;;;;11.98;6.75;;;30.00;99.90;;;;;;5055789;28;20025;-88
2023/08/21 12:35:14;;;;;;;7.97;6.22;;;30.40;99.90;;;;;;5055439;28;20028;-88
2023/08/21 12:37:40;;;;;;;8.20;6.10;;;30.90;99.90;;;;;;5072458;28;20097;-87
2023/08/21 12:40:07;;;;;;;8.55;6.03;;;31.70;99.20;;;;;;5055738;28;20016;-87
2023/08/21 12:42:33;;;;;;;10.02;5.50;;;32.20;97.00;;;;;;5072107;28;20116;-88
2023/08/21 12:44:59;;;;;;;11.80;5.95;;;32.50;98.30;;;;;;5055146;28;20436;-87